Aérodrome :
LOGIN :

S'inscrire | Disclaimer

   EN    FR    IT 

 










Légende :    VFR   VFR Marginal   IFR   IFR Intensif   IFR Très Intensif
Visi : 
Plafond : 
>= 8 km
>= 3000ft
5 à 8 km
1000 à 3000 ft
1500m à 5 km
500 à 1000 ft
800 à 1500m
200 à 500 ft
< 800m
< 200 ft
Symboles :   Orages  Brouillard  Fortes neiges  Fortes précipitations  Vent > 20 kt
SIGMETs :   Divers  Orages  Givrage  Turbulence  Onde Orograph.  Cendres Volcan.






- Altitude de l'aérodrome : 424 ft
- Code IATA : QGY


LHPR - Györ Per

DERNIER METAR :
  • 171215Z 13021KT CAVOK 16/11 Q1012

METARs EXPIRÉS :
  • 171145Z 13018KT CAVOK 16/11 Q1012
  • 171115Z 13020KT CAVOK 16/10 Q1012
  • 171045Z 13021KT 9999 FEW020 SCT200 15/10 Q1012
  • 171015Z 13021KT CAVOK 14/10 Q1013
  • 170945Z 13019KT CAVOK 14/10 Q1013

TAF TAF LHPR
Valide du 17 à 12h jusqu'au 17 à 21h UTC


171115Z 1712/1721 12017KT 9999 SCT025
BECMG 1712/1715 CAVOK
TEMPO 1712/1721 14022G32KT



MET'MAP, la Météo Aéronautique d'un coup d'oeil ! - Copyright ORBIFLY Décembre 2007 - Disclaimer

ORBIFLY MET'MAP TEAM :

Programmation & Développement : Alexandra Zaïnal
Conception & Développement : Baudouin d'Aumeries
Co-Programmation & Développement : Marc-Olivier Méhu
Soutien technique & logistique : Manuel Goepfert

Contact : metmap@orbifly.com




SOURCES & CREDITS :

   NOAA